sensor_id;sensor_type;location;lat;lon;timestamp;P1;durP1;ratioP1;P2;durP2;ratioP2
20468;SDS011;10393;52.460;13.322;2022-09-20T00:01:15;0.50;;;0.40;;
20468;SDS011;10393;52.460;13.322;2022-09-20T00:02:57;0.77;;;0.27;;
20468;SDS011;10393;52.460;13.322;2022-09-20T00:04:38;2.00;;;0.20;;
20468;SDS011;10393;52.460;13.322;2022-09-20T00:06:20;0.20;;;0.10;;
20468;SDS011;10393;52.460;13.322;2022-09-20T00:08:03;3.60;;;0.33;;
20468;SDS011;10393;52.460;13.322;2022-09-20T00:09:45;0.73;;;0.40;;
20468;SDS011;10393;52.460;13.322;2022-09-20T00:11:27;3.50;;;0.10;;
20468;SDS011;10393;52.460;13.322;2022-09-20T00:13:11;0.13;;;0.13;;
20468;SDS011;10393;52.460;13.322;2022-09-20T00:14:52;2.77;;;0.23;;
20468;SDS011;10393;52.460;13.322;2022-09-20T00:16:35;0.30;;;0.10;;
20468;SDS011;10393;52.460;13.322;2022-09-20T00:18:18;0.17;;;0.10;;
20468;SDS011;10393;52.460;13.322;2022-09-20T00:19:59;0.40;;;0.10;;
20468;SDS011;10393;52.460;13.322;2022-09-20T00:21:40;0.10;;;0.10;;
20468;SDS011;10393;52.460;13.322;2022-09-20T00:23:21;1.10;;;0.20;;
20468;SDS011;10393;52.460;13.322;2022-09-20T00:25:02;0.10;;;0.10;;
20468;SDS011;10393;52.460;13.322;2022-09-20T00:26:44;0.47;;;0.30;;
20468;SDS011;10393;52.460;13.322;2022-09-20T00:28:25;0.30;;;0.30;;
20468;SDS011;10393;52.460;13.322;2022-09-20T00:30:07;0.97;;;0.27;;
20468;SDS011;10393;52.460;13.322;2022-09-20T00:31:48;0.30;;;0.20;;
20468;SDS011;10393;52.460;13.322;2022-09-20T00:33:29;0.13;;;0.13;;
20468;SDS011;10393;52.460;13.322;2022-09-20T00:35:29;1.50;;;0.20;;
20468;SDS011;10393;52.460;13.322;2022-09-20T00:37:10;0.37;;;0.20;;
20468;SDS011;10393;52.460;13.322;2022-09-20T00:38:55;0.30;;;0.30;;
20468;SDS011;10393;52.460;13.322;2022-09-20T00:40:36;0.40;;;0.30;;
20468;SDS011;10393;52.460;13.322;2022-09-20T00:42:18;2.77;;;0.40;;
20468;SDS011;10393;52.460;13.322;2022-09-20T00:43:59;0.10;;;0.10;;
20468;SDS011;10393;52.460;13.322;2022-09-20T00:45:41;0.20;;;0.20;;
20468;SDS011;10393;52.460;13.322;2022-09-20T00:47:39;1.03;;;0.40;;
20468;SDS011;10393;52.460;13.322;2022-09-20T00:49:25;1.27;;;0.13;;
20468;SDS011;10393;52.460;13.322;2022-09-20T00:51:09;0.57;;;0.33;;
20468;SDS011;10393;52.460;13.322;2022-09-20T00:52:54;1.23;;;0.10;;
20468;SDS011;10393;52.460;13.322;2022-09-20T00:54:36;0.10;;;0.10;;
20468;SDS011;10393;52.460;13.322;2022-09-20T00:56:21;1.80;;;0.20;;
20468;SDS011;10393;52.460;13.322;2022-09-20T00:58:05;0.30;;;0.30;;
20468;SDS011;10393;52.460;13.322;2022-09-20T00:59:46;0.20;;;0.20;;
20468;SDS011;10393;52.460;13.322;2022-09-20T01:01:30;1.60;;;0.10;;
20468;SDS011;10393;52.460;13.322;2022-09-20T01:03:11;1.70;;;0.27;;
20468;SDS011;10393;52.460;13.322;2022-09-20T01:04:54;1.60;;;0.30;;
20468;SDS011;10393;52.460;13.322;2022-09-20T01:06:36;0.57;;;0.10;;
20468;SDS011;10393;52.460;13.322;2022-09-20T01:08:18;2.00;;;0.30;;
20468;SDS011;10393;52.460;13.322;2022-09-20T01:10:00;0.77;;;0.30;;
20468;SDS011;10393;52.460;13.322;2022-09-20T01:11:41;0.00;;;0.00;;
20468;SDS011;10393;52.460;13.322;2022-09-20T01:13:22;0.40;;;0.40;;
20468;SDS011;10393;52.460;13.322;2022-09-20T01:15:03;0.20;;;0.20;;
20468;SDS011;10393;52.460;13.322;2022-09-20T01:16:45;0.10;;;0.10;;
20468;SDS011;10393;52.460;13.322;2022-09-20T01:18:27;1.37;;;0.30;;
20468;SDS011;10393;52.460;13.322;2022-09-20T01:21:50;0.40;;;0.30;;
20468;SDS011;10393;52.460;13.322;2022-09-20T01:33:10;0.30;;;0.20;;
20468;SDS011;10393;52.460;13.322;2022-09-20T01:34:56;2.80;;;0.40;;
20468;SDS011;10393;52.460;13.322;2022-09-20T01:36:43;1.30;;;0.20;;
20468;SDS011;10393;52.460;13.322;2022-09-20T01:40:23;0.60;;;0.20;;
20468;SDS011;10393;52.460;13.322;2022-09-20T01:42:07;0.47;;;0.13;;
20468;SDS011;10393;52.460;13.322;2022-09-20T01:45:31;0.00;;;0.00;;
20468;SDS011;10393;52.460;13.322;2022-09-20T01:49:05;0.60;;;0.50;;
20468;SDS011;10393;52.460;13.322;2022-09-20T01:52:37;0.30;;;0.30;;
20468;SDS011;10393;52.460;13.322;2022-09-20T02:00:42;0.43;;;0.20;;
20468;SDS011;10393;52.460;13.322;2022-09-20T02:07:49;1.30;;;0.20;;
20468;SDS011;10393;52.460;13.322;2022-09-20T02:09:39;0.10;;;0.10;;
20468;SDS011;10393;52.460;13.322;2022-09-20T02:11:30;0.87;;;0.13;;
20468;SDS011;10393;52.460;13.322;2022-09-20T02:24:55;1.57;;;0.20;;
20468;SDS011;10393;52.460;13.322;2022-09-20T02:37:42;5.20;;;0.50;;
20468;SDS011;10393;52.460;13.322;2022-09-20T02:40:55;2.30;;;0.30;;
20468;SDS011;10393;52.460;13.322;2022-09-20T02:42:43;0.30;;;0.20;;
20468;SDS011;10393;52.460;13.322;2022-09-20T02:44:42;0.83;;;0.10;;
20468;SDS011;10393;52.460;13.322;2022-09-20T02:48:16;0.10;;;0.10;;
20468;SDS011;10393;52.460;13.322;2022-09-20T02:51:53;1.23;;;0.20;;
20468;SDS011;10393;52.460;13.322;2022-09-20T02:53:42;0.30;;;0.23;;
20468;SDS011;10393;52.460;13.322;2022-09-20T02:57:20;0.30;;;0.20;;
20468;SDS011;10393;52.460;13.322;2022-09-20T03:03:06;0.60;;;0.20;;
20468;SDS011;10393;52.460;13.322;2022-09-20T03:06:41;0.20;;;0.20;;
20468;SDS011;10393;52.460;13.322;2022-09-20T03:10:23;0.30;;;0.30;;
20468;SDS011;10393;52.460;13.322;2022-09-20T03:13:58;0.30;;;0.20;;
20468;SDS011;10393;52.460;13.322;2022-09-20T03:17:26;0.30;;;0.30;;
20468;SDS011;10393;52.460;13.322;2022-09-20T03:19:28;0.60;;;0.40;;
20468;SDS011;10393;52.460;13.322;2022-09-20T03:23:25;0.87;;;0.10;;
20468;SDS011;10393;52.460;13.322;2022-09-20T03:32:38;1.13;;;0.20;;
20468;SDS011;10393;52.460;13.322;2022-09-20T03:40:08;0.40;;;0.30;;
20468;SDS011;10393;52.460;13.322;2022-09-20T03:47:15;0.20;;;0.20;;
20468;SDS011;10393;52.460;13.322;2022-09-20T04:03:59;0.30;;;0.20;;
20468;SDS011;10393;52.460;13.322;2022-09-20T04:05:49;0.57;;;0.30;;
20468;SDS011;10393;52.460;13.322;2022-09-20T04:11:27;0.10;;;0.10;;
20468;SDS011;10393;52.460;13.322;2022-09-20T04:19:23;0.07;;;0.07;;
20468;SDS011;10393;52.460;13.322;2022-09-20T04:23:29;0.93;;;0.37;;
20468;SDS011;10393;52.460;13.322;2022-09-20T04:25:18;2.27;;;0.20;;
20468;SDS011;10393;52.460;13.322;2022-09-20T04:27:21;1.73;;;0.20;;
20468;SDS011;10393;52.460;13.322;2022-09-20T04:37:26;0.53;;;0.20;;
20468;SDS011;10393;52.460;13.322;2022-09-20T04:46:36;3.63;;;0.20;;
20468;SDS011;10393;52.460;13.322;2022-09-20T04:53:53;1.10;;;0.20;;
20468;SDS011;10393;52.460;13.322;2022-09-20T05:05:44;0.37;;;0.37;;
20468;SDS011;10393;52.460;13.322;2022-09-20T05:14:54;1.40;;;0.40;;
20468;SDS011;10393;52.460;13.322;2022-09-20T05:17:18;0.80;;;0.37;;
20468;SDS011;10393;52.460;13.322;2022-09-20T05:26:05;1.10;;;0.50;;
20468;SDS011;10393;52.460;13.322;2022-09-20T05:27:49;0.10;;;0.10;;
20468;SDS011;10393;52.460;13.322;2022-09-20T05:29:37;0.20;;;0.20;;
20468;SDS011;10393;52.460;13.322;2022-09-20T05:35:21;0.17;;;0.13;;
20468;SDS011;10393;52.460;13.322;2022-09-20T05:38:53;4.17;;;0.23;;
20468;SDS011;10393;52.460;13.322;2022-09-20T05:40:52;0.90;;;0.20;;
20468;SDS011;10393;52.460;13.322;2022-09-20T05:44:52;1.30;;;0.30;;
20468;SDS011;10393;52.460;13.322;2022-09-20T05:48:48;0.22;;;0.20;;
20468;SDS011;10393;52.460;13.322;2022-09-20T05:50:43;2.85;;;0.40;;
20468;SDS011;10393;52.460;13.322;2022-09-20T05:54:45;1.85;;;0.25;;
20468;SDS011;10393;52.460;13.322;2022-09-20T05:56:36;1.95;;;0.40;;
20468;SDS011;10393;52.460;13.322;2022-09-20T05:58:30;2.13;;;0.20;;
20468;SDS011;10393;52.460;13.322;2022-09-20T06:00:17;0.47;;;0.32;;
20468;SDS011;10393;52.460;13.322;2022-09-20T06:15:19;0.30;;;0.30;;
20468;SDS011;10393;52.460;13.322;2022-09-20T06:17:12;0.40;;;0.40;;
20468;SDS011;10393;52.460;13.322;2022-09-20T06:19:40;1.35;;;0.40;;
20468;SDS011;10393;52.460;13.322;2022-09-20T06:21:22;27.10;;;13.60;;
20468;SDS011;10393;52.460;13.322;2022-09-20T06:23:07;21.70;;;13.95;;
20468;SDS011;10393;52.460;13.322;2022-09-20T06:24:58;14.75;;;7.78;;
20468;SDS011;10393;52.460;13.322;2022-09-20T06:26:41;1.85;;;0.80;;
20468;SDS011;10393;52.460;13.322;2022-09-20T06:28:32;1.48;;;0.60;;
20468;SDS011;10393;52.460;13.322;2022-09-20T06:30:18;0.68;;;0.20;;
20468;SDS011;10393;52.460;13.322;2022-09-20T06:32:00;0.75;;;0.50;;
20468;SDS011;10393;52.460;13.322;2022-09-20T06:33:55;0.30;;;0.22;;
20468;SDS011;10393;52.460;13.322;2022-09-20T06:35:39;0.30;;;0.30;;
20468;SDS011;10393;52.460;13.322;2022-09-20T06:41:39;0.65;;;0.40;;
20468;SDS011;10393;52.460;13.322;2022-09-20T06:43:24;0.65;;;0.40;;
20468;SDS011;10393;52.460;13.322;2022-09-20T06:45:07;12.30;;;0.47;;
20468;SDS011;10393;52.460;13.322;2022-09-20T06:46:48;2.50;;;0.25;;
20468;SDS011;10393;52.460;13.322;2022-09-20T06:48:33;0.63;;;0.25;;
20468;SDS011;10393;52.460;13.322;2022-09-20T06:50:18;6.28;;;0.50;;
20468;SDS011;10393;52.460;13.322;2022-09-20T06:52:02;0.75;;;0.20;;
20468;SDS011;10393;52.460;13.322;2022-09-20T06:53:44;0.28;;;0.20;;
20468;SDS011;10393;52.460;13.322;2022-09-20T06:55:25;1.23;;;0.40;;
20468;SDS011;10393;52.460;13.322;2022-09-20T06:57:08;0.90;;;0.40;;
20468;SDS011;10393;52.460;13.322;2022-09-20T06:58:50;0.30;;;0.30;;
20468;SDS011;10393;52.460;13.322;2022-09-20T07:00:31;0.73;;;0.40;;
20468;SDS011;10393;52.460;13.322;2022-09-20T07:02:13;3.90;;;0.40;;
20468;SDS011;10393;52.460;13.322;2022-09-20T07:03:54;2.95;;;0.20;;
20468;SDS011;10393;52.460;13.322;2022-09-20T07:05:35;1.30;;;0.50;;
20468;SDS011;10393;52.460;13.322;2022-09-20T07:07:18;1.02;;;0.30;;
20468;SDS011;10393;52.460;13.322;2022-09-20T07:08:59;0.68;;;0.30;;
20468;SDS011;10393;52.460;13.322;2022-09-20T07:10:40;0.52;;;0.45;;
20468;SDS011;10393;52.460;13.322;2022-09-20T07:12:23;2.22;;;0.30;;
20468;SDS011;10393;52.460;13.322;2022-09-20T07:14:04;1.35;;;0.40;;
20468;SDS011;10393;52.460;13.322;2022-09-20T07:15:46;1.85;;;0.30;;
20468;SDS011;10393;52.460;13.322;2022-09-20T07:17:28;1.02;;;0.20;;
20468;SDS011;10393;52.460;13.322;2022-09-20T07:19:09;2.20;;;0.32;;
20468;SDS011;10393;52.460;13.322;2022-09-20T07:20:50;0.40;;;0.40;;
20468;SDS011;10393;52.460;13.322;2022-09-20T07:22:31;0.20;;;0.20;;
20468;SDS011;10393;52.460;13.322;2022-09-20T07:24:13;0.70;;;0.40;;
20468;SDS011;10393;52.460;13.322;2022-09-20T07:25:54;0.45;;;0.35;;
20468;SDS011;10393;52.460;13.322;2022-09-20T07:27:40;1.67;;;0.30;;
20468;SDS011;10393;52.460;13.322;2022-09-20T07:29:21;2.03;;;0.43;;
20468;SDS011;10393;52.460;13.322;2022-09-20T07:31:02;0.57;;;0.45;;
20468;SDS011;10393;52.460;13.322;2022-09-20T07:32:43;0.30;;;0.30;;
20468;SDS011;10393;52.460;13.322;2022-09-20T07:34:24;1.40;;;0.30;;
20468;SDS011;10393;52.460;13.322;2022-09-20T07:36:06;3.47;;;0.73;;
20468;SDS011;10393;52.460;13.322;2022-09-20T07:37:47;2.15;;;0.43;;
20468;SDS011;10393;52.460;13.322;2022-09-20T07:39:28;1.05;;;0.63;;
20468;SDS011;10393;52.460;13.322;2022-09-20T07:41:09;0.50;;;0.40;;
20468;SDS011;10393;52.460;13.322;2022-09-20T07:42:51;3.97;;;0.70;;
20468;SDS011;10393;52.460;13.322;2022-09-20T07:44:32;7.82;;;0.90;;
20468;SDS011;10393;52.460;13.322;2022-09-20T07:46:13;0.80;;;0.30;;
20468;SDS011;10393;52.460;13.322;2022-09-20T07:47:55;4.53;;;0.57;;
20468;SDS011;10393;52.460;13.322;2022-09-20T07:49:37;1.20;;;0.60;;
20468;SDS011;10393;52.460;13.322;2022-09-20T07:51:18;1.95;;;0.40;;
20468;SDS011;10393;52.460;13.322;2022-09-20T07:53:00;0.47;;;0.30;;
20468;SDS011;10393;52.460;13.322;2022-09-20T07:54:42;1.85;;;0.40;;
20468;SDS011;10393;52.460;13.322;2022-09-20T07:56:25;0.60;;;0.50;;
20468;SDS011;10393;52.460;13.322;2022-09-20T07:58:06;2.60;;;0.50;;
20468;SDS011;10393;52.460;13.322;2022-09-20T07:59:47;1.55;;;0.38;;
20468;SDS011;10393;52.460;13.322;2022-09-20T08:01:28;0.47;;;0.40;;
20468;SDS011;10393;52.460;13.322;2022-09-20T08:03:09;0.52;;;0.50;;
20468;SDS011;10393;52.460;13.322;2022-09-20T08:04:51;3.65;;;0.50;;
20468;SDS011;10393;52.460;13.322;2022-09-20T08:06:34;0.90;;;0.35;;
20468;SDS011;10393;52.460;13.322;2022-09-20T08:08:17;2.38;;;0.40;;
20468;SDS011;10393;52.460;13.322;2022-09-20T08:09:59;4.72;;;0.40;;
20468;SDS011;10393;52.460;13.322;2022-09-20T08:11:40;2.03;;;0.60;;
20468;SDS011;10393;52.460;13.322;2022-09-20T08:13:22;1.10;;;0.50;;
20468;SDS011;10393;52.460;13.322;2022-09-20T08:15:04;0.85;;;0.32;;
20468;SDS011;10393;52.460;13.322;2022-09-20T08:16:45;1.60;;;0.47;;
20468;SDS011;10393;52.460;13.322;2022-09-20T08:18:27;5.20;;;0.60;;
20468;SDS011;10393;52.460;13.322;2022-09-20T08:20:08;2.08;;;1.00;;
20468;SDS011;10393;52.460;13.322;2022-09-20T08:21:50;0.77;;;0.28;;
20468;SDS011;10393;52.460;13.322;2022-09-20T08:23:36;1.17;;;0.30;;
20468;SDS011;10393;52.460;13.322;2022-09-20T08:25:18;3.28;;;0.35;;
20468;SDS011;10393;52.460;13.322;2022-09-20T08:26:59;2.63;;;0.63;;
20468;SDS011;10393;52.460;13.322;2022-09-20T08:28:40;2.92;;;0.73;;
20468;SDS011;10393;52.460;13.322;2022-09-20T08:30:23;0.35;;;0.30;;
20468;SDS011;10393;52.460;13.322;2022-09-20T08:32:04;0.50;;;0.45;;
20468;SDS011;10393;52.460;13.322;2022-09-20T08:33:46;1.52;;;0.40;;
20468;SDS011;10393;52.460;13.322;2022-09-20T08:35:28;1.00;;;0.30;;
20468;SDS011;10393;52.460;13.322;2022-09-20T08:37:09;3.30;;;0.40;;
20468;SDS011;10393;52.460;13.322;2022-09-20T08:38:51;1.02;;;0.35;;
20468;SDS011;10393;52.460;13.322;2022-09-20T08:40:33;3.08;;;1.58;;
20468;SDS011;10393;52.460;13.322;2022-09-20T08:42:28;0.40;;;0.40;;
20468;SDS011;10393;52.460;13.322;2022-09-20T08:45:55;3.38;;;0.60;;
20468;SDS011;10393;52.460;13.322;2022-09-20T08:47:41;1.55;;;0.35;;
20468;SDS011;10393;52.460;13.322;2022-09-20T08:49:28;4.78;;;0.75;;
20468;SDS011;10393;52.460;13.322;2022-09-20T08:51:11;1.45;;;0.82;;
20468;SDS011;10393;52.460;13.322;2022-09-20T08:52:55;2.10;;;0.60;;
20468;SDS011;10393;52.460;13.322;2022-09-20T08:54:37;0.95;;;0.52;;
20468;SDS011;10393;52.460;13.322;2022-09-20T08:56:20;1.27;;;0.80;;
20468;SDS011;10393;52.460;13.322;2022-09-20T08:58:02;0.98;;;0.65;;
20468;SDS011;10393;52.460;13.322;2022-09-20T08:59:44;1.75;;;0.70;;
20468;SDS011;10393;52.460;13.322;2022-09-20T09:01:26;2.00;;;0.88;;
20468;SDS011;10393;52.460;13.322;2022-09-20T09:03:12;3.03;;;1.00;;
20468;SDS011;10393;52.460;13.322;2022-09-20T09:04:55;0.70;;;0.50;;
20468;SDS011;10393;52.460;13.322;2022-09-20T09:06:37;1.75;;;0.88;;
20468;SDS011;10393;52.460;13.322;2022-09-20T09:08:20;0.68;;;0.50;;
20468;SDS011;10393;52.460;13.322;2022-09-20T09:10:02;3.60;;;0.70;;
20468;SDS011;10393;52.460;13.322;2022-09-20T09:11:43;2.85;;;0.70;;
20468;SDS011;10393;52.460;13.322;2022-09-20T09:13:31;1.23;;;0.50;;
20468;SDS011;10393;52.460;13.322;2022-09-20T09:15:24;4.30;;;0.60;;
20468;SDS011;10393;52.460;13.322;2022-09-20T09:17:10;6.78;;;0.82;;
20468;SDS011;10393;52.460;13.322;2022-09-20T09:18:51;1.23;;;1.00;;
20468;SDS011;10393;52.460;13.322;2022-09-20T09:20:39;2.10;;;0.80;;
20468;SDS011;10393;52.460;13.322;2022-09-20T09:22:30;1.60;;;0.70;;
20468;SDS011;10393;52.460;13.322;2022-09-20T09:24:16;5.00;;;0.90;;
20468;SDS011;10393;52.460;13.322;2022-09-20T09:25:58;1.15;;;0.70;;
20468;SDS011;10393;52.460;13.322;2022-09-20T09:27:59;3.15;;;0.65;;
20468;SDS011;10393;52.460;13.322;2022-09-20T09:29:51;0.65;;;0.63;;
20468;SDS011;10393;52.460;13.322;2022-09-20T09:31:32;1.45;;;0.75;;
20468;SDS011;10393;52.460;13.322;2022-09-20T09:33:24;1.70;;;0.60;;
20468;SDS011;10393;52.460;13.322;2022-09-20T09:37:23;1.55;;;0.70;;
20468;SDS011;10393;52.460;13.322;2022-09-20T09:40:56;0.70;;;0.70;;
20468;SDS011;10393;52.460;13.322;2022-09-20T09:42:46;0.75;;;0.75;;
20468;SDS011;10393;52.460;13.322;2022-09-20T09:44:29;1.27;;;0.65;;
20468;SDS011;10393;52.460;13.322;2022-09-20T09:46:20;2.20;;;0.70;;
20468;SDS011;10393;52.460;13.322;2022-09-20T09:48:02;1.58;;;0.80;;
20468;SDS011;10393;52.460;13.322;2022-09-20T09:49:57;0.73;;;0.50;;
20468;SDS011;10393;52.460;13.322;2022-09-20T09:51:38;1.05;;;0.70;;
20468;SDS011;10393;52.460;13.322;2022-09-20T09:53:22;3.75;;;0.70;;
20468;SDS011;10393;52.460;13.322;2022-09-20T09:55:03;2.35;;;0.80;;
20468;SDS011;10393;52.460;13.322;2022-09-20T09:56:53;2.05;;;0.60;;
20468;SDS011;10393;52.460;13.322;2022-09-20T09:58:44;1.55;;;0.65;;
20468;SDS011;10393;52.460;13.322;2022-09-20T10:00:26;1.38;;;0.70;;
20468;SDS011;10393;52.460;13.322;2022-09-20T10:02:21;0.65;;;0.60;;
20468;SDS011;10393;52.460;13.322;2022-09-20T10:06:25;1.63;;;0.80;;
20468;SDS011;10393;52.460;13.322;2022-09-20T10:08:02;3.00;;;0.63;;
20468;SDS011;10393;52.460;13.322;2022-09-20T10:18:51;0.90;;;0.57;;
20468;SDS011;10393;52.460;13.322;2022-09-20T10:20:42;0.73;;;0.73;;
20468;SDS011;10393;52.460;13.322;2022-09-20T10:26:30;3.75;;;0.80;;
20468;SDS011;10393;52.460;13.322;2022-09-20T10:28:31;1.70;;;0.68;;
20468;SDS011;10393;52.460;13.322;2022-09-20T10:30:19;0.90;;;0.73;;
20468;SDS011;10393;52.460;13.322;2022-09-20T10:39:35;2.42;;;0.85;;
20468;SDS011;10393;52.460;13.322;2022-09-20T10:47:35;1.75;;;0.70;;
20468;SDS011;10393;52.460;13.322;2022-09-20T10:56:51;1.50;;;0.82;;
20468;SDS011;10393;52.460;13.322;2022-09-20T11:09:42;1.15;;;0.80;;
20468;SDS011;10393;52.460;13.322;2022-09-20T11:11:25;2.20;;;0.60;;
20468;SDS011;10393;52.460;13.322;2022-09-20T11:15:11;2.22;;;0.60;;
20468;SDS011;10393;52.460;13.322;2022-09-20T11:17:05;1.85;;;0.60;;
20468;SDS011;10393;52.460;13.322;2022-09-20T11:18:56;2.65;;;0.50;;
20468;SDS011;10393;52.460;13.322;2022-09-20T11:20:44;2.53;;;0.65;;
20468;SDS011;10393;52.460;13.322;2022-09-20T11:22:38;2.33;;;0.65;;
20468;SDS011;10393;52.460;13.322;2022-09-20T11:26:12;1.23;;;0.50;;
20468;SDS011;10393;52.460;13.322;2022-09-20T11:29:43;3.33;;;0.40;;
20468;SDS011;10393;52.460;13.322;2022-09-20T11:31:30;1.10;;;0.60;;
20468;SDS011;10393;52.460;13.322;2022-09-20T11:35:35;3.88;;;1.17;;
20468;SDS011;10393;52.460;13.322;2022-09-20T11:37:18;2.35;;;0.60;;
20468;SDS011;10393;52.460;13.322;2022-09-20T11:39:02;10.57;;;0.90;;
20468;SDS011;10393;52.460;13.322;2022-09-20T11:40:46;6.57;;;0.80;;
20468;SDS011;10393;52.460;13.322;2022-09-20T11:42:29;0.00;;;0.00;;
20468;SDS011;10393;52.460;13.322;2022-09-20T11:44:14;0.00;;;0.00;;
20468;SDS011;10393;52.460;13.322;2022-09-20T11:46:01;0.00;;;0.00;;
20468;SDS011;10393;52.460;13.322;2022-09-20T11:47:45;0.00;;;0.00;;
20468;SDS011;10393;52.460;13.322;2022-09-20T11:49:29;1.15;;;0.10;;
20468;SDS011;10393;52.460;13.322;2022-09-20T11:53:09;0.90;;;0.13;;
20468;SDS011;10393;52.460;13.322;2022-09-20T11:56:37;0.98;;;0.10;;
20468;SDS011;10393;52.460;13.322;2022-09-20T11:58:19;0.98;;;0.10;;
20468;SDS011;10393;52.460;13.322;2022-09-20T12:00:02;0.00;;;0.00;;
20468;SDS011;10393;52.460;13.322;2022-09-20T12:01:53;0.00;;;0.00;;
20468;SDS011;10393;52.460;13.322;2022-09-20T12:03:36;0.00;;;0.00;;
20468;SDS011;10393;52.460;13.322;2022-09-20T12:05:38;0.00;;;0.00;;
20468;SDS011;10393;52.460;13.322;2022-09-20T12:07:24;0.00;;;0.00;;
20468;SDS011;10393;52.460;13.322;2022-09-20T12:09:20;0.00;;;0.00;;
20468;SDS011;10393;52.460;13.322;2022-09-20T12:11:04;0.00;;;0.00;;
20468;SDS011;10393;52.460;13.322;2022-09-20T12:12:46;0.28;;;0.00;;
20468;SDS011;10393;52.460;13.322;2022-09-20T12:14:28;0.00;;;0.00;;
20468;SDS011;10393;52.460;13.322;2022-09-20T12:16:12;0.00;;;0.00;;
20468;SDS011;10393;52.460;13.322;2022-09-20T12:19:36;0.00;;;0.00;;
20468;SDS011;10393;52.460;13.322;2022-09-20T12:21:18;0.00;;;0.00;;
20468;SDS011;10393;52.460;13.322;2022-09-20T12:33:18;0.00;;;0.00;;
20468;SDS011;10393;52.460;13.322;2022-09-20T12:35:01;0.00;;;0.00;;
20468;SDS011;10393;52.460;13.322;2022-09-20T12:38:45;0.00;;;0.00;;
20468;SDS011;10393;52.460;13.322;2022-09-20T12:40:27;0.00;;;0.00;;
20468;SDS011;10393;52.460;13.322;2022-09-20T12:43:51;0.00;;;0.00;;
20468;SDS011;10393;52.460;13.322;2022-09-20T12:45:33;0.00;;;0.00;;
20468;SDS011;10393;52.460;13.322;2022-09-20T12:47:22;0.00;;;0.00;;
20468;SDS011;10393;52.460;13.322;2022-09-20T12:51:31;0.00;;;0.00;;
20468;SDS011;10393;52.460;13.322;2022-09-20T12:53:31;0.88;;;0.10;;
20468;SDS011;10393;52.460;13.322;2022-09-20T12:57:16;0.00;;;0.00;;
20468;SDS011;10393;52.460;13.322;2022-09-20T12:58:58;0.00;;;0.00;;
20468;SDS011;10393;52.460;13.322;2022-09-20T13:06:28;0.00;;;0.00;;
20468;SDS011;10393;52.460;13.322;2022-09-20T13:10:04;0.00;;;0.00;;
20468;SDS011;10393;52.460;13.322;2022-09-20T13:11:53;0.00;;;0.00;;
20468;SDS011;10393;52.460;13.322;2022-09-20T13:15:18;0.00;;;0.00;;
20468;SDS011;10393;52.460;13.322;2022-09-20T13:17:05;0.00;;;0.00;;
20468;SDS011;10393;52.460;13.322;2022-09-20T13:18:59;0.00;;;0.00;;
20468;SDS011;10393;52.460;13.322;2022-09-20T13:20:43;0.00;;;0.00;;
20468;SDS011;10393;52.460;13.322;2022-09-20T13:22:25;0.00;;;0.00;;
20468;SDS011;10393;52.460;13.322;2022-09-20T13:24:07;0.00;;;0.00;;
20468;SDS011;10393;52.460;13.322;2022-09-20T13:25:53;0.00;;;0.00;;
20468;SDS011;10393;52.460;13.322;2022-09-20T13:29:34;0.05;;;0.00;;
20468;SDS011;10393;52.460;13.322;2022-09-20T13:35:19;0.00;;;0.00;;
20468;SDS011;10393;52.460;13.322;2022-09-20T13:37:00;0.00;;;0.00;;
20468;SDS011;10393;52.460;13.322;2022-09-20T13:38:42;0.00;;;0.00;;
20468;SDS011;10393;52.460;13.322;2022-09-20T13:40:30;0.00;;;0.00;;
20468;SDS011;10393;52.460;13.322;2022-09-20T13:42:14;0.00;;;0.00;;
20468;SDS011;10393;52.460;13.322;2022-09-20T13:43:58;0.00;;;0.00;;
20468;SDS011;10393;52.460;13.322;2022-09-20T13:45:40;0.00;;;0.00;;
20468;SDS011;10393;52.460;13.322;2022-09-20T13:47:29;0.00;;;0.00;;
20468;SDS011;10393;52.460;13.322;2022-09-20T13:50:56;0.00;;;0.00;;
20468;SDS011;10393;52.460;13.322;2022-09-20T13:52:43;0.00;;;0.00;;
20468;SDS011;10393;52.460;13.322;2022-09-20T13:54:29;0.00;;;0.00;;
20468;SDS011;10393;52.460;13.322;2022-09-20T13:56:14;0.00;;;0.00;;
20468;SDS011;10393;52.460;13.322;2022-09-20T13:57:58;0.00;;;0.00;;
20468;SDS011;10393;52.460;13.322;2022-09-20T13:59:42;0.00;;;0.00;;
20468;SDS011;10393;52.460;13.322;2022-09-20T14:01:28;0.00;;;0.00;;
20468;SDS011;10393;52.460;13.322;2022-09-20T14:03:11;0.00;;;0.00;;
20468;SDS011;10393;52.460;13.322;2022-09-20T14:04:56;0.95;;;0.10;;
20468;SDS011;10393;52.460;13.322;2022-09-20T14:06:39;0.00;;;0.00;;
20468;SDS011;10393;52.460;13.322;2022-09-20T14:08:31;0.00;;;0.00;;
20468;SDS011;10393;52.460;13.322;2022-09-20T14:12:12;0.00;;;0.00;;
20468;SDS011;10393;52.460;13.322;2022-09-20T14:13:54;0.00;;;0.00;;
20468;SDS011;10393;52.460;13.322;2022-09-20T14:15:38;0.00;;;0.00;;
20468;SDS011;10393;52.460;13.322;2022-09-20T14:17:21;0.00;;;0.00;;
20468;SDS011;10393;52.460;13.322;2022-09-20T14:19:03;0.00;;;0.00;;
20468;SDS011;10393;52.460;13.322;2022-09-20T14:20:47;0.00;;;0.00;;
20468;SDS011;10393;52.460;13.322;2022-09-20T14:22:28;0.00;;;0.00;;
20468;SDS011;10393;52.460;13.322;2022-09-20T14:26:07;0.00;;;0.00;;
20468;SDS011;10393;52.460;13.322;2022-09-20T14:28:04;0.00;;;0.00;;
20468;SDS011;10393;52.460;13.322;2022-09-20T14:29:49;0.00;;;0.00;;
20468;SDS011;10393;52.460;13.322;2022-09-20T14:31:31;0.00;;;0.00;;
20468;SDS011;10393;52.460;13.322;2022-09-20T14:33:17;0.00;;;0.00;;
20468;SDS011;10393;52.460;13.322;2022-09-20T14:35:04;0.00;;;0.00;;
20468;SDS011;10393;52.460;13.322;2022-09-20T14:36:46;0.00;;;0.00;;
20468;SDS011;10393;52.460;13.322;2022-09-20T14:38:28;0.00;;;0.00;;
20468;SDS011;10393;52.460;13.322;2022-09-20T14:42:00;0.00;;;0.00;;
20468;SDS011;10393;52.460;13.322;2022-09-20T14:43:41;0.00;;;0.00;;
20468;SDS011;10393;52.460;13.322;2022-09-20T14:45:24;0.00;;;0.00;;
20468;SDS011;10393;52.460;13.322;2022-09-20T14:47:12;0.00;;;0.00;;
20468;SDS011;10393;52.460;13.322;2022-09-20T14:48:54;0.00;;;0.00;;
20468;SDS011;10393;52.460;13.322;2022-09-20T14:51:18;0.00;;;0.00;;
20468;SDS011;10393;52.460;13.322;2022-09-20T14:56:49;1.02;;;0.10;;
20468;SDS011;10393;52.460;13.322;2022-09-20T14:58:59;0.00;;;0.00;;
20468;SDS011;10393;52.460;13.322;2022-09-20T15:00:51;0.00;;;0.00;;
20468;SDS011;10393;52.460;13.322;2022-09-20T15:02:34;0.70;;;0.00;;
20468;SDS011;10393;52.460;13.322;2022-09-20T15:04:22;1.00;;;0.10;;
20468;SDS011;10393;52.460;13.322;2022-09-20T15:06:13;0.00;;;0.00;;
20468;SDS011;10393;52.460;13.322;2022-09-20T15:07:54;0.00;;;0.00;;
20468;SDS011;10393;52.460;13.322;2022-09-20T15:09:36;0.00;;;0.00;;
20468;SDS011;10393;52.460;13.322;2022-09-20T15:11:18;0.52;;;0.00;;
20468;SDS011;10393;52.460;13.322;2022-09-20T15:12:59;0.00;;;0.00;;
20468;SDS011;10393;52.460;13.322;2022-09-20T15:14:40;0.00;;;0.00;;
20468;SDS011;10393;52.460;13.322;2022-09-20T15:16:22;0.00;;;0.00;;
20468;SDS011;10393;52.460;13.322;2022-09-20T15:18:04;0.00;;;0.00;;
20468;SDS011;10393;52.460;13.322;2022-09-20T15:19:50;0.00;;;0.00;;
20468;SDS011;10393;52.460;13.322;2022-09-20T15:21:32;0.00;;;0.00;;
20468;SDS011;10393;52.460;13.322;2022-09-20T15:23:14;0.00;;;0.00;;
20468;SDS011;10393;52.460;13.322;2022-09-20T15:24:55;0.98;;;0.00;;
20468;SDS011;10393;52.460;13.322;2022-09-20T15:26:36;0.00;;;0.00;;
20468;SDS011;10393;52.460;13.322;2022-09-20T15:28:18;0.00;;;0.00;;
20468;SDS011;10393;52.460;13.322;2022-09-20T15:29:59;0.00;;;0.00;;